Bredeweg, Netherlands
Current Conditions -  °F | °C
As of 4:55 AM on Friday 31 Oct 2014 (Local Time) from EHVK Reporting Station
Haze Haze  
Wind Chill: 54°   Ceiling: 10000
Heat Index: 54°   Visibility: 4mi
Dew Point: 52°   Wind: 6mph
Humidity: 94%   Direction: 180°S
Pressure: 30.15"   Gusts: NA
Location:  51.76°N, 5.94°E
Report Text: EHVK 310355Z AUTO 18005KT 7000 BR OVC100 12/11 Q1021 WHT
Loading
Personal Weather Stations






























Interactive Weather Map
Tropical Storm Tracking
New forecast layout! Learn more

10-Day Weather Forecast

Advertisements
Track Severe Weather on mobile